createdAt,value
2022-12-03T00:00:12.498Z,38.50
2022-12-03T00:02:41.293Z,42.95
2022-12-03T00:05:09.268Z,40.53
2022-12-03T00:07:36.492Z,36.40
2022-12-03T00:10:05.112Z,38.85
2022-12-03T00:12:34.654Z,38.83
2022-12-03T00:15:01.802Z,38.38
2022-12-03T00:17:30.260Z,36.95
2022-12-03T00:19:57.447Z,36.25
2022-12-03T00:22:24.644Z,35.45
2022-12-03T00:24:52.155Z,34.70
2022-12-03T00:27:19.498Z,39.50
2022-12-03T00:29:46.623Z,34.92
2022-12-03T00:32:14.208Z,34.38
2022-12-03T00:34:41.375Z,34.83
2022-12-03T00:37:08.532Z,35.67
2022-12-03T00:39:35.668Z,37.28
2022-12-03T00:42:02.821Z,35.75
2022-12-03T00:44:35.122Z,36.03
2022-12-03T00:47:02.425Z,33.78
2022-12-03T00:49:29.594Z,33.67
2022-12-03T00:51:56.737Z,36.13
2022-12-03T00:54:28.471Z,36.33
2022-12-03T00:56:58.939Z,34.58
2022-12-03T00:59:26.104Z,36.15
2022-12-03T01:01:53.295Z,35.05
2022-12-03T01:04:21.446Z,37.83
2022-12-03T01:06:48.699Z,35.03
2022-12-03T01:09:15.828Z,36.50
2022-12-03T01:11:43.074Z,34.40
2022-12-03T01:14:12.791Z,35.00
2022-12-03T01:16:39.998Z,35.38
2022-12-03T01:19:07.623Z,35.65
2022-12-03T01:21:35.106Z,34.67
2022-12-03T01:24:02.418Z,37.28
2022-12-03T01:26:29.570Z,35.95
2022-12-03T01:28:56.743Z,35.45
2022-12-03T01:31:42.721Z,37.33
2022-12-03T01:34:09.981Z,35.63
2022-12-03T01:36:40.785Z,33.95
2022-12-03T01:39:07.955Z,38.28
2022-12-03T01:41:35.415Z,36.67
2022-12-03T01:44:18.567Z,35.50
2022-12-03T01:46:45.788Z,36.38
2022-12-03T01:49:27.125Z,36.83
2022-12-03T01:52:12.969Z,35.42
2022-12-03T01:54:46.150Z,36.47
2022-12-03T01:57:26.420Z,35.13
2022-12-03T01:59:54.369Z,33.58
2022-12-03T02:02:27.480Z,37.10
2022-12-03T02:04:55.207Z,36.58
2022-12-03T02:07:32.798Z,35.15
2022-12-03T02:10:02.237Z,36.28
2022-12-03T02:12:36.902Z,36.85
2022-12-03T02:15:05.939Z,37.80
2022-12-03T02:17:33.178Z,36.50
2022-12-03T02:20:01.710Z,36.08
2022-12-03T02:22:38.079Z,38.88
2022-12-03T02:25:18.394Z,35.35
2022-12-03T02:27:45.703Z,36.85
2022-12-03T02:30:14.362Z,37.30
2022-12-03T02:32:41.529Z,36.75
2022-12-03T02:35:21.169Z,33.47
2022-12-03T02:38:01.436Z,36.90
2022-12-03T02:40:31.086Z,36.03
2022-12-03T02:43:00.176Z,37.85
2022-12-03T02:45:33.987Z,36.30
2022-12-03T02:48:17.487Z,35.03
2022-12-03T02:50:51.611Z,36.88
2022-12-03T02:53:44.507Z,36.47
2022-12-03T02:56:14.812Z,36.58
2022-12-03T02:58:42.110Z,33.65
2022-12-03T03:01:09.377Z,36.85
2022-12-03T03:03:37.081Z,38.28
2022-12-03T03:06:04.562Z,34.83
2022-12-03T03:08:31.754Z,36.03
2022-12-03T03:11:00.120Z,36.30
2022-12-03T03:13:27.474Z,35.45
2022-12-03T03:15:54.663Z,35.78
2022-12-03T03:18:21.894Z,35.00
2022-12-03T03:20:49.002Z,34.95
2022-12-03T03:23:19.016Z,36.40
2022-12-03T03:25:51.759Z,38.92
2022-12-03T03:28:20.354Z,37.05
2022-12-03T03:30:47.474Z,35.80
2022-12-03T03:33:14.656Z,34.30
2022-12-03T03:35:42.265Z,39.25
2022-12-03T03:38:09.427Z,37.08
2022-12-03T03:40:37.501Z,38.70
2022-12-03T03:43:04.721Z,36.17
2022-12-03T03:45:31.912Z,37.95
2022-12-03T03:47:59.209Z,35.40
2022-12-03T03:50:27.891Z,35.13
2022-12-03T03:52:55.211Z,38.53
2022-12-03T03:55:22.359Z,35.75
2022-12-03T03:57:49.608Z,38.17
2022-12-03T04:00:17.099Z,35.85
2022-12-03T04:02:44.567Z,36.55
2022-12-03T04:05:19.573Z,36.42
2022-12-03T04:07:46.856Z,38.60
2022-12-03T04:10:33.181Z,36.45
2022-12-03T04:13:00.532Z,35.95
2022-12-03T04:15:27.896Z,38.15
2022-12-03T04:18:13.883Z,40.92
2022-12-03T04:20:41.712Z,37.53
2022-12-03T04:23:08.997Z,37.60
2022-12-03T04:26:11.765Z,37.03
2022-12-03T04:28:50.970Z,35.05
2022-12-03T04:31:36.687Z,36.97
2022-12-03T04:34:22.661Z,37.45
2022-12-03T04:36:49.923Z,36.00
2022-12-03T04:39:17.108Z,36.72
2022-12-03T04:41:44.304Z,38.00
2022-12-03T04:44:30.362Z,37.33
2022-12-03T04:46:57.839Z,37.08
2022-12-03T04:49:25.012Z,36.58
2022-12-03T04:51:52.135Z,40.15
2022-12-03T04:54:19.330Z,37.78
2022-12-03T04:56:47.633Z,35.95
2022-12-03T04:59:16.509Z,35.40
2022-12-03T05:01:44.690Z,35.83
2022-12-03T05:04:13.169Z,35.63
2022-12-03T05:06:41.076Z,36.33
2022-12-03T05:09:08.476Z,40.55
2022-12-03T05:11:35.649Z,37.78
2022-12-03T05:14:02.873Z,37.35
2022-12-03T05:16:30.258Z,38.95
2022-12-03T05:18:57.520Z,34.60
2022-12-03T05:21:24.691Z,37.67
2022-12-03T05:23:51.874Z,34.30
2022-12-03T05:26:19.064Z,38.53
2022-12-03T05:28:46.299Z,37.50
2022-12-03T05:31:13.483Z,35.80
2022-12-03T05:33:44.197Z,39.25
2022-12-03T05:36:11.793Z,37.90
2022-12-03T05:38:39.199Z,37.55
2022-12-03T05:41:26.688Z,36.72
2022-12-03T05:43:56.230Z,33.72
2022-12-03T05:46:23.402Z,36.28
2022-12-03T05:48:50.620Z,36.42
2022-12-03T05:51:17.787Z,35.33
2022-12-03T05:53:44.950Z,36.72
2022-12-03T05:56:12.431Z,38.38
2022-12-03T05:58:39.525Z,41.97
2022-12-03T06:01:08.146Z,39.50
2022-12-03T06:03:35.405Z,36.65
2022-12-03T06:06:02.728Z,39.38
2022-12-03T06:08:29.910Z,41.00
2022-12-03T06:10:57.008Z,40.60
2022-12-03T06:13:24.191Z,44.17
2022-12-03T06:15:51.386Z,44.80
2022-12-03T06:18:18.783Z,43.85
2022-12-03T06:20:45.961Z,42.03
2022-12-03T06:23:13.082Z,47.33
2022-12-03T06:25:40.139Z,45.85
2022-12-03T06:28:07.441Z,41.13
2022-12-03T06:30:35.844Z,41.95
2022-12-03T06:33:03.126Z,44.05
2022-12-03T06:35:30.278Z,49.38
2022-12-03T06:37:57.491Z,48.63
2022-12-03T06:40:25.142Z,47.08
2022-12-03T06:42:52.594Z,47.03
2022-12-03T06:45:19.689Z,44.40
2022-12-03T06:47:46.841Z,41.42
2022-12-03T06:50:14.246Z,42.30
2022-12-03T06:52:41.347Z,40.08
2022-12-03T06:55:09.451Z,42.95
2022-12-03T06:57:36.576Z,36.72
2022-12-03T07:00:06.285Z,38.10
2022-12-03T07:02:33.557Z,40.42
2022-12-03T07:05:00.830Z,41.63
2022-12-03T07:07:27.992Z,38.67
2022-12-03T07:09:55.881Z,41.92
2022-12-03T07:12:23.093Z,41.15
2022-12-03T07:14:50.198Z,39.80
2022-12-03T07:17:17.349Z,41.53
2022-12-03T07:19:44.534Z,46.28
2022-12-03T07:22:11.778Z,45.63
2022-12-03T07:24:38.988Z,44.60
2022-12-03T07:27:06.312Z,42.58
2022-12-03T07:29:33.444Z,43.75
2022-12-03T07:32:00.668Z,43.90
2022-12-03T07:34:28.567Z,43.38
2022-12-03T07:36:55.781Z,44.45
2022-12-03T07:39:23.018Z,41.58
2022-12-03T07:41:50.244Z,42.60
2022-12-03T07:44:19.669Z,46.38
2022-12-03T07:46:46.948Z,46.10
2022-12-03T07:49:14.264Z,42.53
2022-12-03T07:51:42.911Z,48.03
2022-12-03T07:54:10.199Z,50.53
2022-12-03T07:56:37.418Z,51.17
2022-12-03T07:59:04.680Z,46.60
2022-12-03T08:01:31.945Z,44.85
2022-12-03T08:03:59.434Z,47.33
2022-12-03T08:06:27.014Z,40.15
2022-12-03T08:08:54.202Z,43.17
2022-12-03T08:11:21.428Z,43.00
2022-12-03T08:13:48.669Z,44.58
2022-12-03T08:16:20.672Z,52.22
2022-12-03T08:18:48.636Z,43.60
2022-12-03T08:21:18.562Z,50.72
2022-12-03T08:23:46.912Z,41.03
2022-12-03T08:26:20.218Z,43.58
2022-12-03T08:28:47.443Z,47.22
2022-12-03T08:31:32.409Z,44.75
2022-12-03T08:34:31.836Z,46.03
2022-12-03T08:37:02.258Z,49.17
2022-12-03T08:39:37.770Z,46.97
2022-12-03T08:42:23.348Z,45.10
2022-12-03T08:44:50.580Z,47.28
2022-12-03T08:47:22.569Z,44.85
2022-12-03T08:50:14.162Z,49.70
2022-12-03T08:52:41.295Z,49.05
2022-12-03T08:55:33.660Z,48.75
2022-12-03T08:58:00.944Z,46.10
2022-12-03T09:00:28.144Z,44.63
2022-12-03T09:02:58.488Z,52.92
2022-12-03T09:05:32.398Z,49.95
2022-12-03T09:07:59.965Z,47.83
2022-12-03T09:10:27.261Z,47.28
2022-12-03T09:12:54.437Z,47.05
2022-12-03T09:15:21.631Z,51.90
2022-12-03T09:17:50.303Z,47.75
2022-12-03T09:20:17.642Z,50.50
2022-12-03T09:22:44.995Z,51.13
2022-12-03T09:25:12.119Z,52.97
2022-12-03T09:27:39.360Z,55.40
2022-12-03T09:30:07.469Z,52.97
2022-12-03T09:32:34.761Z,53.95
2022-12-03T09:35:03.261Z,50.13
2022-12-03T09:37:30.478Z,49.92
2022-12-03T09:39:57.603Z,129.57
2022-12-03T09:42:25.598Z,136.73
2022-12-03T09:44:53.389Z,99.00
2022-12-03T09:47:20.708Z,160.27
2022-12-03T09:49:47.863Z,128.63
2022-12-03T09:52:23.234Z,84.30
2022-12-03T09:54:52.759Z,55.75
2022-12-03T09:57:20.229Z,59.00
2022-12-03T09:59:47.594Z,48.38
2022-12-03T10:02:22.441Z,51.30
2022-12-03T10:04:49.856Z,50.33
2022-12-03T10:07:17.212Z,55.45
2022-12-03T10:09:44.374Z,48.08
2022-12-03T10:12:12.414Z,51.92
2022-12-03T10:14:41.282Z,52.15
2022-12-03T10:17:10.647Z,54.35
2022-12-03T10:19:39.550Z,50.60
2022-12-03T10:22:06.717Z,52.85
2022-12-03T10:24:35.371Z,51.72
2022-12-03T10:27:05.747Z,49.22
2022-12-03T10:29:35.302Z,48.08
2022-12-03T10:32:07.172Z,50.15
2022-12-03T10:34:36.914Z,45.97
2022-12-03T10:37:24.041Z,55.67
2022-12-03T10:40:08.385Z,58.58
2022-12-03T10:42:38.259Z,53.80
2022-12-03T10:45:18.492Z,54.78
2022-12-03T10:48:06.663Z,52.30
2022-12-03T10:50:34.708Z,50.42
2022-12-03T10:53:01.866Z,58.08
2022-12-03T10:55:37.561Z,61.03
2022-12-03T10:58:04.745Z,62.47
2022-12-03T11:00:31.908Z,52.30
2022-12-03T11:02:59.069Z,57.35
2022-12-03T11:05:27.419Z,56.92
2022-12-03T11:07:54.810Z,54.95
2022-12-03T11:10:27.295Z,56.25
2022-12-03T11:13:33.533Z,54.85
2022-12-03T11:16:02.231Z,58.13
2022-12-03T11:18:38.519Z,56.75
2022-12-03T11:21:06.644Z,53.28
2022-12-03T11:23:45.973Z,57.35
2022-12-03T11:26:28.856Z,56.70
2022-12-03T11:28:57.579Z,62.58
2022-12-03T11:31:41.219Z,58.30
2022-12-03T11:34:23.183Z,56.13
2022-12-03T11:37:12.440Z,58.63
2022-12-03T11:39:52.078Z,55.85
2022-12-03T11:42:28.479Z,55.60
2022-12-03T11:45:04.556Z,58.53
2022-12-03T11:47:34.329Z,60.33
2022-12-03T11:50:01.640Z,59.13
2022-12-03T11:52:39.373Z,57.83
2022-12-03T11:55:30.208Z,60.08
2022-12-03T11:58:18.717Z,56.90
2022-12-03T12:00:56.984Z,60.63
2022-12-03T12:03:32.901Z,61.55
2022-12-03T12:06:20.584Z,62.42
2022-12-03T12:08:51.460Z,59.90
2022-12-03T12:11:29.999Z,61.83
2022-12-03T12:14:08.231Z,67.57
2022-12-03T12:16:55.209Z,61.70
2022-12-03T12:19:42.527Z,59.20
2022-12-03T12:22:24.112Z,64.07
2022-12-03T12:24:56.679Z,59.70
2022-12-03T12:27:45.215Z,59.47
2022-12-03T12:30:27.671Z,58.63
2022-12-03T12:33:19.669Z,61.58
2022-12-03T12:35:46.915Z,62.42
2022-12-03T12:38:16.941Z,60.35
2022-12-03T12:40:46.920Z,58.38
2022-12-03T12:43:26.324Z,63.72
2022-12-03T12:45:56.106Z,64.18
2022-12-03T12:48:34.294Z,62.88
2022-12-03T12:51:20.434Z,62.83
2022-12-03T12:53:47.879Z,61.30
2022-12-03T12:56:32.702Z,59.70
2022-12-03T12:59:11.271Z,60.03
2022-12-03T13:01:38.959Z,60.35
2022-12-03T13:04:19.332Z,55.17
2022-12-03T13:06:47.878Z,61.55
2022-12-03T13:09:19.565Z,58.05
2022-12-03T13:11:51.816Z,60.00
2022-12-03T13:14:26.743Z,59.95
2022-12-03T13:16:55.488Z,58.75
2022-12-03T13:19:30.456Z,58.78
2022-12-03T13:22:01.719Z,56.65
2022-12-03T13:24:47.757Z,62.03
2022-12-03T13:27:19.769Z,61.03
2022-12-03T13:30:01.350Z,58.97
2022-12-03T13:32:47.586Z,61.33
2022-12-03T13:36:12.241Z,60.50
2022-12-03T13:38:54.302Z,66.18
2022-12-03T13:41:40.255Z,65.35
2022-12-03T13:44:16.886Z,61.78
2022-12-03T13:46:49.406Z,59.97
2022-12-03T13:49:21.602Z,61.55
2022-12-03T13:51:49.609Z,59.63
2022-12-03T13:54:23.060Z,63.67
2022-12-03T13:56:50.611Z,61.20
2022-12-03T13:59:25.967Z,59.30
2022-12-03T14:01:53.522Z,55.72
2022-12-03T14:04:45.526Z,59.30
2022-12-03T14:07:15.362Z,58.55
2022-12-03T14:09:49.032Z,52.72
2022-12-03T14:15:23.378Z,54.63
2022-12-03T14:19:00.121Z,59.58
2022-12-03T14:21:36.818Z,54.80
2022-12-03T14:24:07.153Z,57.67
2022-12-03T14:26:42.122Z,59.80
2022-12-03T14:29:17.701Z,55.53
2022-12-03T14:31:47.340Z,60.83
2022-12-03T14:34:17.074Z,62.85
2022-12-03T14:36:50.210Z,62.35
2022-12-03T14:39:19.098Z,63.15
2022-12-03T14:42:05.023Z,65.70
2022-12-03T14:44:35.241Z,65.55
2022-12-03T14:47:06.413Z,60.95
2022-12-03T14:49:56.226Z,55.65
2022-12-03T14:55:38.802Z,63.92
2022-12-03T14:58:13.442Z,61.63
2022-12-03T15:00:46.235Z,84.78
2022-12-03T15:03:23.616Z,62.55
2022-12-03T15:05:56.464Z,67.55
2022-12-03T15:08:35.181Z,66.97
2022-12-03T15:11:09.258Z,68.70
2022-12-03T15:14:10.752Z,66.30
2022-12-03T15:16:37.998Z,61.22
2022-12-03T15:19:05.209Z,63.08
2022-12-03T15:21:35.089Z,69.07
2022-12-03T15:24:04.672Z,67.30
2022-12-03T15:26:31.772Z,67.85
2022-12-03T15:28:59.008Z,68.18
2022-12-03T15:31:26.364Z,68.95
2022-12-03T15:33:53.642Z,71.43
2022-12-03T15:36:20.840Z,73.13
2022-12-03T15:38:48.429Z,72.13
2022-12-03T15:41:21.697Z,71.15
2022-12-03T15:43:49.961Z,67.22
2022-12-03T15:46:19.917Z,72.15
2022-12-03T15:48:47.609Z,69.93
2022-12-03T15:51:14.850Z,69.38
2022-12-03T15:53:42.075Z,69.53
2022-12-03T15:56:09.570Z,69.07
2022-12-03T15:58:36.844Z,72.57
2022-12-03T16:01:05.549Z,67.95
2022-12-03T16:03:36.576Z,65.88
2022-12-03T16:06:03.782Z,69.18
2022-12-03T16:08:31.042Z,69.90
2022-12-03T16:10:58.199Z,76.18
2022-12-03T16:13:25.454Z,72.95
2022-12-03T16:15:53.707Z,76.57
2022-12-03T16:18:21.015Z,74.22
2022-12-03T16:20:50.958Z,75.32
2022-12-03T16:23:18.174Z,72.18
2022-12-03T16:25:45.398Z,72.35
2022-12-03T16:28:12.800Z,73.32
2022-12-03T16:30:42.843Z,75.18
2022-12-03T16:33:13.165Z,77.97
2022-12-03T16:35:40.517Z,75.82
2022-12-03T16:38:12.669Z,78.80
2022-12-03T16:40:39.852Z,90.72
2022-12-03T16:43:08.477Z,88.25
2022-12-03T16:45:54.657Z,92.45
2022-12-03T16:48:22.627Z,83.65
2022-12-03T16:50:49.862Z,86.25
2022-12-03T16:53:16.962Z,88.28
2022-12-03T16:55:44.094Z,95.15
2022-12-03T16:58:14.444Z,86.50
2022-12-03T17:00:41.721Z,83.68
2022-12-03T17:03:08.986Z,82.53
2022-12-03T17:05:36.249Z,89.70
2022-12-03T17:08:12.998Z,87.88
2022-12-03T17:10:44.131Z,83.38
2022-12-03T17:13:11.426Z,89.10
2022-12-03T17:15:39.349Z,81.18
2022-12-03T17:18:07.487Z,86.20
2022-12-03T17:20:35.704Z,80.43
2022-12-03T17:23:02.954Z,81.28
2022-12-03T17:25:30.424Z,81.25
2022-12-03T17:28:03.980Z,83.93
2022-12-03T17:30:31.209Z,79.73
2022-12-03T17:32:58.427Z,90.10
2022-12-03T17:35:26.774Z,89.72
2022-12-03T17:37:54.372Z,77.35
2022-12-03T17:40:21.544Z,83.63
2022-12-03T17:42:48.846Z,85.68
2022-12-03T17:45:16.179Z,77.50
2022-12-03T17:47:43.372Z,76.93
2022-12-03T17:50:10.866Z,84.35
2022-12-03T17:52:38.137Z,81.63
2022-12-03T17:55:18.025Z,86.20
2022-12-03T17:57:48.703Z,78.97
2022-12-03T18:00:16.067Z,84.07
2022-12-03T18:02:43.460Z,77.65
2022-12-03T18:05:10.765Z,81.35
2022-12-03T18:07:38.016Z,82.22
2022-12-03T18:10:06.108Z,80.60
2022-12-03T18:12:33.510Z,82.07
2022-12-03T18:15:00.683Z,74.75
2022-12-03T18:17:27.962Z,76.55
2022-12-03T18:19:55.409Z,74.38
2022-12-03T18:22:22.723Z,76.05
2022-12-03T18:24:51.964Z,74.97
2022-12-03T18:27:20.875Z,79.07
2022-12-03T18:29:48.040Z,77.47
2022-12-03T18:32:28.208Z,78.35
2022-12-03T18:34:56.925Z,78.15
2022-12-03T18:37:28.958Z,75.00
2022-12-03T18:39:56.805Z,78.28
2022-12-03T18:42:27.513Z,75.63
2022-12-03T18:44:55.890Z,71.20
2022-12-03T18:47:26.879Z,73.07
2022-12-03T18:49:54.907Z,74.32
2022-12-03T18:52:23.159Z,77.25
2022-12-03T18:54:50.709Z,75.13
2022-12-03T18:57:18.101Z,76.78
2022-12-03T18:59:45.240Z,75.63
2022-12-03T19:02:38.475Z,76.30
2022-12-03T19:05:04.503Z,76.25
2022-12-03T19:07:31.779Z,74.53
2022-12-03T19:09:59.028Z,73.30
2022-12-03T19:12:26.253Z,76.00
2022-12-03T19:14:56.495Z,81.38
2022-12-03T19:17:23.663Z,80.70
2022-12-03T19:19:50.812Z,78.82
2022-12-03T19:22:18.073Z,78.32
2022-12-03T19:24:45.144Z,77.85
2022-12-03T19:27:12.244Z,79.88
2022-12-03T19:29:43.007Z,78.68
2022-12-03T19:32:19.742Z,79.30
2022-12-03T19:34:46.982Z,79.72
2022-12-03T19:37:14.269Z,83.57
2022-12-03T19:39:42.106Z,81.72
2022-12-03T19:42:09.507Z,82.00
2022-12-03T19:44:36.702Z,83.63
2022-12-03T19:47:03.895Z,79.10
2022-12-03T19:49:31.101Z,73.72
2022-12-03T19:51:58.262Z,81.45
2022-12-03T19:54:25.444Z,78.38
2022-12-03T19:56:52.737Z,77.25
2022-12-03T19:59:19.878Z,76.75
2022-12-03T20:01:54.515Z,79.97
2022-12-03T20:04:21.737Z,78.93
2022-12-03T20:06:52.823Z,74.85
2022-12-03T20:09:21.466Z,78.15
2022-12-03T20:12:01.380Z,75.28
2022-12-03T20:14:34.619Z,75.90
2022-12-03T20:17:05.917Z,72.82
2022-12-03T20:19:37.179Z,72.25
2022-12-03T20:22:04.323Z,75.32
2022-12-03T20:24:31.544Z,71.82
2022-12-03T20:26:58.691Z,70.13
2022-12-03T20:29:25.825Z,70.65
2022-12-03T20:31:53.184Z,71.70
2022-12-03T20:34:26.589Z,71.72
2022-12-03T20:36:55.754Z,67.90
2022-12-03T20:39:23.649Z,69.50
2022-12-03T20:42:11.385Z,71.53
2022-12-03T20:44:41.829Z,72.75
2022-12-03T20:47:09.082Z,73.40
2022-12-03T20:49:36.362Z,69.97
2022-12-03T20:52:04.828Z,71.13
2022-12-03T20:54:39.016Z,75.63
2022-12-03T20:57:09.737Z,77.20
2022-12-03T20:59:45.918Z,74.20
2022-12-03T21:02:13.150Z,76.20
2022-12-03T21:04:40.495Z,74.00
2022-12-03T21:07:10.736Z,75.80
2022-12-03T21:09:37.968Z,80.13
2022-12-03T21:12:05.168Z,78.95
2022-12-03T21:14:32.592Z,77.95
2022-12-03T21:17:08.482Z,79.07
2022-12-03T21:19:36.247Z,76.63
2022-12-03T21:22:03.334Z,80.55
2022-12-03T21:24:30.506Z,88.35
2022-12-03T21:26:58.962Z,86.55
2022-12-03T21:29:26.167Z,82.53
2022-12-03T21:31:53.298Z,81.95
2022-12-03T21:34:20.535Z,79.05
2022-12-03T21:36:47.749Z,83.20
2022-12-03T21:39:14.983Z,80.90
2022-12-03T21:42:33.676Z,84.93
2022-12-03T21:44:29.343Z,79.00
2022-12-03T21:47:09.265Z,80.20
2022-12-03T21:49:40.193Z,78.18
2022-12-03T21:52:07.363Z,77.65
2022-12-03T21:54:34.501Z,83.15
2022-12-03T21:57:01.739Z,75.47
2022-12-03T21:59:28.967Z,82.03
2022-12-03T22:01:56.865Z,78.43
2022-12-03T22:04:28.957Z,82.88
2022-12-03T22:07:23.684Z,83.35
2022-12-03T22:10:25.835Z,76.18
2022-12-03T22:13:28.391Z,79.75
2022-12-03T22:16:21.733Z,78.65
2022-12-03T22:18:49.940Z,74.85
2022-12-03T22:21:19.047Z,74.43
2022-12-03T22:23:46.344Z,72.68
2022-12-03T22:26:16.270Z,79.10
2022-12-03T22:28:47.388Z,74.65
2022-12-03T22:31:15.428Z,73.43
2022-12-03T22:33:43.457Z,74.45
2022-12-03T22:36:16.422Z,74.40
2022-12-03T22:38:47.645Z,74.30
2022-12-03T22:41:15.146Z,78.15
2022-12-03T22:43:42.878Z,76.30
2022-12-03T22:46:13.543Z,75.38
2022-12-03T22:48:41.885Z,83.18
2022-12-03T22:51:25.232Z,76.88
2022-12-03T22:53:56.900Z,77.38
2022-12-03T22:56:24.637Z,76.57
2022-12-03T22:58:53.662Z,75.78
2022-12-03T23:01:32.040Z,78.57
2022-12-03T23:04:00.822Z,78.72
2022-12-03T23:06:28.494Z,78.85
2022-12-03T23:08:55.883Z,76.82
2022-12-03T23:11:23.007Z,75.85
2022-12-03T23:13:50.200Z,74.43
2022-12-03T23:16:26.917Z,75.55
2022-12-03T23:18:55.003Z,74.80
2022-12-03T23:21:29.902Z,77.93
2022-12-03T23:24:02.112Z,77.78
2022-12-03T23:26:29.309Z,75.05
2022-12-03T23:28:56.675Z,77.03
2022-12-03T23:31:29.594Z,77.55
2022-12-03T23:33:57.310Z,77.80
2022-12-03T23:36:27.336Z,77.15
2022-12-03T23:38:54.680Z,76.25
2022-12-03T23:41:22.895Z,78.38
2022-12-03T23:43:50.212Z,74.18
2022-12-03T23:46:23.048Z,75.03
2022-12-03T23:48:50.793Z,77.15
2022-12-03T23:51:24.018Z,78.70
2022-12-03T23:53:52.943Z,79.32
2022-12-03T23:56:23.279Z,73.68
2022-12-03T23:58:50.787Z,74.80
